sensor_id;sensor_type;location;lat;lon;timestamp;pressure;altitude;pressure_sealevel;temperature;humidity
33731;BME280;22931;48.636;9.000;2023-09-12T04:39:05;95677.09;;;20.71;54.71
33731;BME280;22931;48.636;9.000;2023-09-12T04:44:14;95677.53;;;20.66;54.44
33731;BME280;22931;48.636;9.000;2023-09-12T04:49:22;95673.69;;;20.67;54.76
33731;BME280;22931;48.636;9.000;2023-09-12T05:12:09;95671.22;;;20.79;55.67
33731;BME280;22931;48.636;9.000;2023-09-12T05:17:17;95672.72;;;20.80;54.89
33731;BME280;22931;48.636;9.000;2023-09-12T05:22:25;95681.88;;;20.83;55.10
33731;BME280;22931;48.636;9.000;2023-09-12T05:39:23;95697.50;;;21.11;55.43
33731;BME280;22931;48.636;9.000;2023-09-12T05:44:30;95696.50;;;21.25;55.68
33731;BME280;22931;48.636;9.000;2023-09-12T05:49:41;95694.72;;;21.41;56.68
33731;BME280;22931;48.636;9.000;2023-09-12T05:54:49;95699.84;;;21.55;55.98
33731;BME280;22931;48.636;9.000;2023-09-12T06:01:00;95709.03;;;21.78;56.47
33731;BME280;22931;48.636;9.000;2023-09-12T06:18:16;95699.44;;;22.19;55.86
33731;BME280;22931;48.636;9.000;2023-09-12T06:23:27;95703.44;;;22.31;56.65
33731;BME280;22931;48.636;9.000;2023-09-12T06:46:43;95720.66;;;22.69;56.03
33731;BME280;22931;48.636;9.000;2023-09-12T06:51:51;95722.84;;;22.74;55.52
33731;BME280;22931;48.636;9.000;2023-09-12T06:56:58;95725.03;;;22.79;55.86
33731;BME280;22931;48.636;9.000;2023-09-12T07:20:18;95748.81;;;23.29;56.60
33731;BME280;22931;48.636;9.000;2023-09-12T07:25:25;95737.94;;;23.52;56.13
33731;BME280;22931;48.636;9.000;2023-09-12T07:30:33;95749.91;;;23.80;56.81
33731;BME280;22931;48.636;9.000;2023-09-12T07:53:53;95746.94;;;24.77;55.99
33731;BME280;22931;48.636;9.000;2023-09-12T07:59:01;95752.78;;;25.01;55.09
33731;BME280;22931;48.636;9.000;2023-09-12T08:04:09;95754.16;;;25.18;55.32
33731;BME280;22931;48.636;9.000;2023-09-12T08:27:18;95757.56;;;25.69;54.18
33731;BME280;22931;48.636;9.000;2023-09-12T08:32:27;95767.88;;;25.83;54.41
33731;BME280;22931;48.636;9.000;2023-09-12T08:43:53;95755.69;;;26.25;54.00
33731;BME280;22931;48.636;9.000;2023-09-12T08:49:05;95755.56;;;26.50;53.87
33731;BME280;22931;48.636;9.000;2023-09-12T08:54:14;95762.13;;;26.71;53.54
33731;BME280;22931;48.636;9.000;2023-09-12T09:17:11;95756.66;;;27.54;51.83
33731;BME280;22931;48.636;9.000;2023-09-12T09:22:37;95753.97;;;27.72;52.07
33731;BME280;22931;48.636;9.000;2023-09-12T09:27:45;95745.91;;;27.90;51.58
33731;BME280;22931;48.636;9.000;2023-09-12T09:51:13;95719.72;;;28.51;49.02
33731;BME280;22931;48.636;9.000;2023-09-12T09:56:21;95717.91;;;28.57;49.92
33731;BME280;22931;48.636;9.000;2023-09-12T10:01:33;95718.78;;;28.72;49.31
33731;BME280;22931;48.636;9.000;2023-09-12T10:12:30;95727.44;;;28.94;48.93
33731;BME280;22931;48.636;9.000;2023-09-12T10:17:40;95719.84;;;29.07;48.05
33731;BME280;22931;48.636;9.000;2023-09-12T10:29:16;95731.34;;;29.35;48.02
33731;BME280;22931;48.636;9.000;2023-09-12T10:34:25;95731.13;;;29.48;47.76
33731;BME280;22931;48.636;9.000;2023-09-12T11:09:21;95714.16;;;30.24;46.44
33731;BME280;22931;48.636;9.000;2023-09-12T11:14:29;95713.66;;;30.25;46.28
33731;BME280;22931;48.636;9.000;2023-09-12T11:19:43;95699.41;;;30.39;45.80
33731;BME280;22931;48.636;9.000;2023-09-12T11:24:56;95691.97;;;30.40;45.20
33731;BME280;22931;48.636;9.000;2023-09-12T11:30:06;95686.38;;;30.43;44.63
33731;BME280;22931;48.636;9.000;2023-09-12T11:35:15;95679.34;;;30.51;44.24
33731;BME280;22931;48.636;9.000;2023-09-12T11:52:47;95675.47;;;30.73;43.06
33731;BME280;22931;48.636;9.000;2023-09-12T11:57:54;95665.63;;;30.75;43.20
33731;BME280;22931;48.636;9.000;2023-09-12T12:03:03;95671.16;;;30.81;43.02
33731;BME280;22931;48.636;9.000;2023-09-12T12:08:15;95671.53;;;30.88;41.95
33731;BME280;22931;48.636;9.000;2023-09-12T12:13:26;95676.03;;;30.91;42.34
33731;BME280;22931;48.636;9.000;2023-09-12T12:18:38;95674.91;;;30.98;42.30
33731;BME280;22931;48.636;9.000;2023-09-12T12:24:13;95658.75;;;31.09;42.28
33731;BME280;22931;48.636;9.000;2023-09-12T12:35:17;95656.66;;;31.18;41.46
33731;BME280;22931;48.636;9.000;2023-09-12T12:41:12;95659.56;;;31.35;41.42
33731;BME280;22931;48.636;9.000;2023-09-12T12:47:03;95649.78;;;31.43;40.98
33731;BME280;22931;48.636;9.000;2023-09-12T12:52:43;95649.41;;;31.50;40.75
33731;BME280;22931;48.636;9.000;2023-09-12T12:58:15;95642.06;;;31.56;40.73
33731;BME280;22931;48.636;9.000;2023-09-12T13:03:22;95628.75;;;31.58;40.42
33731;BME280;22931;48.636;9.000;2023-09-12T13:08:31;95618.38;;;31.62;40.11
33731;BME280;22931;48.636;9.000;2023-09-12T13:13:58;95606.28;;;31.63;39.38
33731;BME280;22931;48.636;9.000;2023-09-12T13:30:31;95614.03;;;31.70;40.48
33731;BME280;22931;48.636;9.000;2023-09-12T13:35:39;95617.28;;;31.74;40.79
33731;BME280;22931;48.636;9.000;2023-09-12T13:41:11;95613.19;;;31.84;40.21
33731;BME280;22931;48.636;9.000;2023-09-12T13:46:43;95600.38;;;31.90;40.01
33731;BME280;22931;48.636;9.000;2023-09-12T13:51:52;95595.72;;;31.96;40.25
33731;BME280;22931;48.636;9.000;2023-09-12T13:57:00;95604.44;;;32.01;40.11
33731;BME280;22931;48.636;9.000;2023-09-12T14:08:17;95587.41;;;32.06;39.76
33731;BME280;22931;48.636;9.000;2023-09-12T14:13:26;95604.72;;;32.03;40.02
33731;BME280;22931;48.636;9.000;2023-09-12T14:18:34;95617.25;;;31.94;39.54
33731;BME280;22931;48.636;9.000;2023-09-12T14:24:05;95612.22;;;31.87;39.54
33731;BME280;22931;48.636;9.000;2023-09-12T14:29:56;95619.47;;;31.70;39.02
33731;BME280;22931;48.636;9.000;2023-09-12T14:35:17;95624.78;;;31.59;39.62
33731;BME280;22931;48.636;9.000;2023-09-12T20:42:47;95741.00;;;25.58;44.98
33731;BME280;22931;48.636;9.000;2023-09-12T21:00:57;95760.94;;;25.60;45.25
33731;BME280;22931;48.636;9.000;2023-09-12T21:12:48;95764.19;;;25.55;46.30
33731;BME280;22931;48.636;9.000;2023-09-12T21:24:34;95780.13;;;25.37;45.74
33731;BME280;22931;48.636;9.000;2023-09-12T21:30:07;95777.56;;;25.33;45.98
33731;BME280;22931;48.636;9.000;2023-09-12T21:35:51;95783.72;;;25.21;46.01
33731;BME280;22931;48.636;9.000;2023-09-12T21:41:36;95784.78;;;25.11;46.24
33731;BME280;22931;48.636;9.000;2023-09-12T21:53:35;95812.84;;;24.85;45.77
33731;BME280;22931;48.636;9.000;2023-09-12T21:58:56;95806.16;;;24.77;46.88
33731;BME280;22931;48.636;9.000;2023-09-12T22:04:34;95810.00;;;24.76;46.84
33731;BME280;22931;48.636;9.000;2023-09-12T22:09:45;95819.56;;;24.64;46.35
33731;BME280;22931;48.636;9.000;2023-09-12T22:14:57;95828.41;;;24.65;47.16
33731;BME280;22931;48.636;9.000;2023-09-12T22:20:07;95813.84;;;24.62;46.66
33731;BME280;22931;48.636;9.000;2023-09-12T22:25:17;95814.25;;;24.61;47.16
33731;BME280;22931;48.636;9.000;2023-09-12T22:30:29;95821.16;;;24.62;47.42
33731;BME280;22931;48.636;9.000;2023-09-12T22:35:39;95813.19;;;24.58;46.75
33731;BME280;22931;48.636;9.000;2023-09-12T22:40:47;95813.94;;;24.59;47.17
33731;BME280;22931;48.636;9.000;2023-09-12T22:45:59;95817.72;;;24.61;47.49
33731;BME280;22931;48.636;9.000;2023-09-12T22:51:07;95835.16;;;24.57;47.03
33731;BME280;22931;48.636;9.000;2023-09-12T22:56:15;95841.03;;;24.52;47.18
33731;BME280;22931;48.636;9.000;2023-09-12T23:01:26;95854.25;;;24.46;47.98
33731;BME280;22931;48.636;9.000;2023-09-12T23:06:36;95865.88;;;24.43;47.68
33731;BME280;22931;48.636;9.000;2023-09-12T23:11:44;95856.63;;;24.44;47.58
33731;BME280;22931;48.636;9.000;2023-09-12T23:16:54;95855.34;;;24.49;47.99
33731;BME280;22931;48.636;9.000;2023-09-12T23:22:02;95871.06;;;24.50;48.42
33731;BME280;22931;48.636;9.000;2023-09-12T23:27:10;95892.50;;;24.54;48.48
33731;BME280;22931;48.636;9.000;2023-09-12T23:32:20;95894.34;;;24.57;48.88
33731;BME280;22931;48.636;9.000;2023-09-12T23:37:28;95902.34;;;24.60;48.35
33731;BME280;22931;48.636;9.000;2023-09-12T23:42:36;95915.38;;;24.62;48.79
33731;BME280;22931;48.636;9.000;2023-09-12T23:47:47;95930.66;;;24.65;48.58
33731;BME280;22931;48.636;9.000;2023-09-12T23:52:55;95937.53;;;24.66;48.42
33731;BME280;22931;48.636;9.000;2023-09-12T23:58:03;95942.59;;;24.64;49.02
